createdAt,value
2023-05-15T00:01:30.718Z,5.22
2023-05-15T00:03:57.394Z,5.57
2023-05-15T00:06:24.090Z,5.38
2023-05-15T00:08:50.720Z,5.97
2023-05-15T00:11:17.381Z,5.85
2023-05-15T00:13:43.879Z,5.50
2023-05-15T00:16:10.553Z,6.20
2023-05-15T00:18:37.530Z,6.85
2023-05-15T00:21:04.413Z,6.70
2023-05-15T00:23:31.086Z,6.50
2023-05-15T00:25:57.771Z,6.95
2023-05-15T00:28:24.666Z,6.47
2023-05-15T00:30:52.244Z,5.70
2023-05-15T00:33:18.943Z,5.82
2023-05-15T00:35:46.064Z,6.40
2023-05-15T00:38:13.065Z,5.68
2023-05-15T00:40:42.245Z,5.32
2023-05-15T00:43:09.809Z,5.75
2023-05-15T00:45:40.112Z,6.60
2023-05-15T00:48:09.781Z,6.35
2023-05-15T00:50:36.933Z,5.75
2023-05-15T00:53:03.919Z,5.97
2023-05-15T00:55:32.114Z,6.03
2023-05-15T00:58:00.783Z,5.60
2023-05-15T01:00:28.396Z,5.82
2023-05-15T01:02:55.205Z,6.30
2023-05-15T01:05:22.116Z,5.28
2023-05-15T01:07:54.810Z,6.18
2023-05-15T01:10:21.860Z,5.57
2023-05-15T01:12:53.207Z,5.88
2023-05-15T01:15:20.026Z,6.38
2023-05-15T01:17:47.063Z,6.70
2023-05-15T01:20:18.341Z,6.45
2023-05-15T01:22:52.897Z,6.57
2023-05-15T01:25:59.430Z,6.53
2023-05-15T01:28:30.812Z,6.40
2023-05-15T01:30:59.461Z,6.80
2023-05-15T01:33:36.248Z,7.22
2023-05-15T01:36:30.125Z,6.38
2023-05-15T01:39:01.289Z,6.50
2023-05-15T01:41:31.231Z,6.40
2023-05-15T01:44:04.780Z,6.15
2023-05-15T01:46:33.245Z,5.55
2023-05-15T01:49:03.023Z,5.45
2023-05-15T01:51:31.292Z,5.88
2023-05-15T01:53:59.500Z,5.80
2023-05-15T01:56:27.111Z,4.93
2023-05-15T01:58:55.494Z,4.90
2023-05-15T02:01:23.971Z,4.70
2023-05-15T02:03:51.840Z,5.13
2023-05-15T02:06:18.920Z,5.10
2023-05-15T02:08:46.735Z,5.00
2023-05-15T02:11:14.650Z,5.70
2023-05-15T02:13:43.272Z,5.63
2023-05-15T02:16:09.987Z,4.75
2023-05-15T02:18:37.483Z,5.13
2023-05-15T02:21:04.375Z,5.03
2023-05-15T02:23:31.012Z,5.18
2023-05-15T02:26:17.567Z,5.05
2023-05-15T02:29:20.381Z,5.38
2023-05-15T02:31:47.142Z,5.25
2023-05-15T02:34:26.277Z,5.22
2023-05-15T02:36:54.540Z,6.53
2023-05-15T02:39:23.546Z,4.75
2023-05-15T02:41:52.284Z,4.88
2023-05-15T02:44:20.734Z,4.55
2023-05-15T02:46:48.443Z,4.72
2023-05-15T02:49:15.906Z,4.53
2023-05-15T02:51:42.711Z,4.43
2023-05-15T02:54:09.607Z,4.40
2023-05-15T02:56:36.300Z,5.20
2023-05-15T02:59:03.555Z,4.82
2023-05-15T03:01:30.292Z,5.70
2023-05-15T03:03:57.254Z,4.72
2023-05-15T03:06:24.029Z,5.32
2023-05-15T03:08:50.680Z,5.00
2023-05-15T03:11:19.236Z,5.25
2023-05-15T03:13:45.928Z,5.10
2023-05-15T03:16:12.600Z,5.30
2023-05-15T03:18:39.339Z,5.07
2023-05-15T03:21:06.268Z,5.03
2023-05-15T03:23:33.447Z,4.45
2023-05-15T03:26:00.927Z,4.82
2023-05-15T03:28:27.634Z,4.25
2023-05-15T03:30:54.380Z,4.60
2023-05-15T03:33:21.519Z,4.65
2023-05-15T03:35:48.285Z,4.85
2023-05-15T03:38:15.049Z,5.00
2023-05-15T03:40:41.749Z,4.85
2023-05-15T03:43:08.470Z,4.85
2023-05-15T03:45:37.191Z,4.60
2023-05-15T03:48:04.145Z,4.88
2023-05-15T03:50:30.871Z,4.38
2023-05-15T03:52:57.628Z,4.15
2023-05-15T03:55:24.826Z,4.57
2023-05-15T03:57:51.831Z,4.50
2023-05-15T04:00:19.240Z,4.13
2023-05-15T04:02:46.101Z,4.35
2023-05-15T04:05:13.024Z,5.05
2023-05-15T04:07:39.911Z,5.10
2023-05-15T04:10:07.171Z,4.85
2023-05-15T04:12:35.531Z,5.32
2023-05-15T04:15:23.214Z,5.30
2023-05-15T04:17:51.835Z,5.00
2023-05-15T04:20:21.552Z,4.90
2023-05-15T04:22:48.775Z,4.53
2023-05-15T04:25:16.471Z,5.50
2023-05-15T04:27:44.297Z,4.95
2023-05-15T04:30:12.657Z,5.10
2023-05-15T04:32:40.200Z,4.40
2023-05-15T04:35:10.204Z,4.72
2023-05-15T04:37:37.880Z,4.75
2023-05-15T04:40:06.700Z,4.78
2023-05-15T04:42:33.652Z,4.30
2023-05-15T04:45:00.695Z,5.05
2023-05-15T04:47:27.592Z,4.70
2023-05-15T04:49:54.273Z,4.60
2023-05-15T04:52:20.953Z,5.18
2023-05-15T04:54:49.578Z,4.85
2023-05-15T04:57:17.117Z,5.55
2023-05-15T04:59:43.917Z,4.70
2023-05-15T05:02:10.883Z,5.13
2023-05-15T05:04:37.593Z,5.97
2023-05-15T05:07:05.779Z,5.47
2023-05-15T05:09:32.608Z,5.05
2023-05-15T05:12:00.318Z,5.47
2023-05-15T05:14:27.410Z,5.43
2023-05-15T05:16:54.224Z,4.78
2023-05-15T05:19:20.989Z,5.60
2023-05-15T05:21:47.815Z,5.30
2023-05-15T05:24:14.536Z,6.32
2023-05-15T05:26:44.739Z,5.50
2023-05-15T05:29:11.669Z,5.22
2023-05-15T05:31:38.495Z,5.25
2023-05-15T05:34:05.575Z,5.63
2023-05-15T05:36:32.886Z,5.90
2023-05-15T05:38:59.542Z,6.32
2023-05-15T05:41:26.231Z,6.55
2023-05-15T05:43:52.934Z,6.22
2023-05-15T05:46:19.680Z,6.82
2023-05-15T05:48:46.386Z,5.78
2023-05-15T05:51:13.066Z,6.07
2023-05-15T05:53:39.736Z,5.97
2023-05-15T05:56:06.893Z,6.15
2023-05-15T05:58:33.602Z,5.80
2023-05-15T06:01:00.832Z,6.05
2023-05-15T06:03:27.829Z,6.13
2023-05-15T06:05:54.650Z,5.38
2023-05-15T06:08:21.363Z,5.38
2023-05-15T06:10:48.261Z,5.90
2023-05-15T06:13:15.188Z,5.47
2023-05-15T06:15:42.758Z,5.85
2023-05-15T06:18:09.492Z,5.50
2023-05-15T06:20:36.218Z,5.68
2023-05-15T06:23:02.928Z,5.95
2023-05-15T06:25:29.782Z,5.85
2023-05-15T06:27:56.448Z,5.95
2023-05-15T06:30:23.290Z,6.22
2023-05-15T06:32:50.089Z,5.43
2023-05-15T06:35:16.834Z,6.00
2023-05-15T06:37:43.522Z,5.63
2023-05-15T06:40:10.855Z,6.18
2023-05-15T06:42:37.540Z,5.38
2023-05-15T06:45:04.663Z,6.13
2023-05-15T06:47:31.405Z,6.05
2023-05-15T06:49:58.075Z,5.65
2023-05-15T06:52:24.752Z,5.45
2023-05-15T06:54:52.055Z,6.28
2023-05-15T06:57:19.769Z,5.47
2023-05-15T06:59:46.743Z,5.88
2023-05-15T07:02:13.415Z,6.22
2023-05-15T07:04:40.899Z,6.03
2023-05-15T07:07:08.110Z,6.30
2023-05-15T07:09:35.495Z,6.45
2023-05-15T07:12:02.252Z,6.22
2023-05-15T07:14:28.903Z,5.72
2023-05-15T07:16:55.696Z,5.05
2023-05-15T07:19:22.538Z,6.07
2023-05-15T07:21:49.310Z,5.15
2023-05-15T07:24:15.996Z,5.05
2023-05-15T07:26:54.146Z,4.80
2023-05-15T07:29:24.998Z,4.30
2023-05-15T07:31:51.684Z,4.40
2023-05-15T07:34:18.485Z,4.28
2023-05-15T07:36:45.284Z,4.03
2023-05-15T07:39:12.095Z,4.70
2023-05-15T07:41:38.799Z,3.92
2023-05-15T07:44:06.069Z,4.00
2023-05-15T07:46:33.850Z,3.53
2023-05-15T07:49:00.616Z,3.63
2023-05-15T07:51:27.396Z,2.90
2023-05-15T07:53:54.249Z,2.63
2023-05-15T07:56:21.524Z,3.00
2023-05-15T07:58:48.366Z,3.17
2023-05-15T08:01:15.164Z,2.90
2023-05-15T08:03:42.023Z,3.00
2023-05-15T08:06:08.740Z,2.70
2023-05-15T08:08:35.428Z,3.65
2023-05-15T08:11:02.179Z,3.35
2023-05-15T08:13:28.932Z,3.38
2023-05-15T08:15:55.907Z,3.38
2023-05-15T08:18:22.660Z,3.78
2023-05-15T08:20:49.873Z,3.67
2023-05-15T08:23:16.592Z,3.70
2023-05-15T08:25:43.378Z,2.95
2023-05-15T08:28:10.753Z,3.22
2023-05-15T08:30:37.690Z,4.30
2023-05-15T08:33:04.589Z,3.83
2023-05-15T08:35:31.389Z,3.33
2023-05-15T08:37:58.880Z,3.63
2023-05-15T08:40:38.542Z,2.90
2023-05-15T08:43:15.136Z,3.88
2023-05-15T08:45:42.645Z,3.22
2023-05-15T08:48:13.887Z,3.30
2023-05-15T08:50:43.456Z,3.50
2023-05-15T08:53:12.731Z,3.60
2023-05-15T08:55:40.066Z,3.17
2023-05-15T08:58:08.052Z,2.80
2023-05-15T09:00:35.062Z,3.10
2023-05-15T09:03:02.178Z,3.17
2023-05-15T09:05:29.808Z,2.90
2023-05-15T09:07:58.842Z,2.95
2023-05-15T09:10:25.719Z,2.45
2023-05-15T09:12:53.375Z,3.15
2023-05-15T09:15:25.589Z,3.65
2023-05-15T09:17:53.202Z,3.08
2023-05-15T09:20:31.053Z,3.08
2023-05-15T09:22:59.153Z,3.42
2023-05-15T09:25:46.298Z,3.00
2023-05-15T09:28:31.451Z,3.10
2023-05-15T09:31:03.641Z,3.70
2023-05-15T09:33:36.344Z,3.10
2023-05-15T09:36:04.745Z,3.50
2023-05-15T09:38:39.699Z,3.38
2023-05-15T09:41:08.318Z,3.70
2023-05-15T09:43:37.049Z,3.40
2023-05-15T09:46:04.687Z,2.65
2023-05-15T09:48:32.354Z,3.10
2023-05-15T09:50:59.147Z,2.83
2023-05-15T09:53:29.541Z,2.97
2023-05-15T09:55:56.836Z,3.17
2023-05-15T09:58:23.656Z,3.20
2023-05-15T10:00:50.613Z,2.97
2023-05-15T10:03:21.873Z,2.70
2023-05-15T10:05:48.670Z,2.85
2023-05-15T10:08:16.152Z,3.17
2023-05-15T10:10:43.767Z,2.80
2023-05-15T10:13:11.769Z,2.85
2023-05-15T10:15:39.728Z,2.78
2023-05-15T10:18:07.505Z,3.10
2023-05-15T10:20:35.838Z,2.67
2023-05-15T10:23:05.875Z,3.00
2023-05-15T10:25:42.468Z,2.72
2023-05-15T10:28:11.150Z,3.20
2023-05-15T10:30:38.690Z,2.83
2023-05-15T10:33:06.748Z,3.00
2023-05-15T10:35:35.014Z,2.42
2023-05-15T10:38:05.455Z,2.17
2023-05-15T10:40:33.194Z,2.20
2023-05-15T10:43:01.688Z,11.02
2023-05-15T10:45:32.192Z,3.40
2023-05-15T10:48:00.662Z,2.53
2023-05-15T10:50:27.916Z,6.53
2023-05-15T10:52:55.699Z,14.43
2023-05-15T10:55:23.106Z,5.18
2023-05-15T10:57:49.811Z,2.95
2023-05-15T11:00:24.277Z,2.42
2023-05-15T11:02:53.954Z,2.97
2023-05-15T11:05:20.828Z,2.85
2023-05-15T11:08:27.546Z,2.42
2023-05-15T11:10:54.510Z,2.50
2023-05-15T11:13:21.768Z,2.90
2023-05-15T11:15:48.970Z,2.55
2023-05-15T11:18:16.500Z,2.72
2023-05-15T11:21:03.132Z,2.60
2023-05-15T11:23:38.338Z,2.80
2023-05-15T11:26:05.811Z,2.55
2023-05-15T11:28:42.404Z,2.83
2023-05-15T11:31:09.161Z,2.70
2023-05-15T11:33:39.536Z,2.40
2023-05-15T11:36:07.106Z,2.80
2023-05-15T11:38:40.062Z,2.75
2023-05-15T11:41:18.203Z,2.47
2023-05-15T11:43:45.220Z,2.55
2023-05-15T11:46:13.725Z,2.40
2023-05-15T11:48:47.576Z,2.25
2023-05-15T11:51:18.490Z,2.40
2023-05-15T11:53:46.172Z,2.42
2023-05-15T11:56:18.680Z,2.83
2023-05-15T11:58:49.919Z,2.60
2023-05-15T12:01:16.789Z,2.88
2023-05-15T12:03:44.117Z,2.80
2023-05-15T12:06:11.124Z,2.70
2023-05-15T12:08:38.539Z,2.47
2023-05-15T12:11:05.792Z,2.65
2023-05-15T12:13:33.210Z,2.83
2023-05-15T12:16:01.466Z,2.28
2023-05-15T12:18:28.287Z,2.60
2023-05-15T12:20:55.442Z,3.08
2023-05-15T12:23:25.209Z,2.45
2023-05-15T12:25:58.329Z,2.67
2023-05-15T12:28:26.635Z,3.22
2023-05-15T12:30:54.133Z,2.78
2023-05-15T12:33:21.065Z,2.97
2023-05-15T12:35:55.318Z,2.30
2023-05-15T12:38:24.869Z,2.78
2023-05-15T12:40:53.555Z,2.80
2023-05-15T12:43:23.432Z,2.42
2023-05-15T12:45:53.041Z,2.45
2023-05-15T12:48:20.270Z,2.50
2023-05-15T12:50:47.105Z,2.45
2023-05-15T12:53:15.818Z,2.70
2023-05-15T12:55:45.333Z,2.33
2023-05-15T12:58:12.992Z,2.85
2023-05-15T13:00:42.083Z,2.28
2023-05-15T13:03:10.292Z,2.45
2023-05-15T13:05:38.370Z,2.80
2023-05-15T13:08:07.448Z,2.17
2023-05-15T13:10:37.594Z,2.22
2023-05-15T13:13:04.325Z,2.15
2023-05-15T13:15:37.823Z,1.90
2023-05-15T13:18:08.262Z,1.90
2023-05-15T13:20:38.485Z,2.60
2023-05-15T13:23:05.361Z,2.33
2023-05-15T13:25:32.409Z,2.15
2023-05-15T13:28:00.917Z,2.20
2023-05-15T13:30:28.478Z,2.20
2023-05-15T13:32:55.902Z,1.80
2023-05-15T13:35:23.452Z,1.90
2023-05-15T13:37:50.410Z,2.15
2023-05-15T13:40:17.225Z,2.25
2023-05-15T13:42:44.490Z,2.63
2023-05-15T13:45:13.907Z,2.17
2023-05-15T13:47:40.682Z,2.55
2023-05-15T13:50:08.969Z,2.58
2023-05-15T13:52:36.069Z,2.67
2023-05-15T13:55:04.422Z,3.08
2023-05-15T13:57:32.085Z,2.25
2023-05-15T13:59:59.052Z,2.67
2023-05-15T14:02:27.044Z,2.55
2023-05-15T14:04:53.981Z,2.53
2023-05-15T14:07:23.642Z,2.30
2023-05-15T14:09:51.207Z,2.30
2023-05-15T14:12:18.481Z,2.85
2023-05-15T14:14:46.946Z,2.80
2023-05-15T14:17:15.050Z,2.80
2023-05-15T14:19:42.025Z,3.08
2023-05-15T14:22:09.161Z,2.72
2023-05-15T14:24:35.976Z,2.72
2023-05-15T14:27:02.699Z,2.80
2023-05-15T14:29:29.527Z,3.00
2023-05-15T14:31:56.268Z,2.65
2023-05-15T14:34:23.481Z,2.75
2023-05-15T14:36:50.955Z,3.30
2023-05-15T14:39:18.407Z,2.63
2023-05-15T14:41:45.593Z,2.78
2023-05-15T14:44:12.266Z,2.92
2023-05-15T14:46:40.791Z,2.70
2023-05-15T14:49:07.707Z,2.47
2023-05-15T14:51:34.443Z,3.10
2023-05-15T14:54:01.503Z,2.70
2023-05-15T14:56:28.174Z,2.78
2023-05-15T14:58:54.981Z,2.78
2023-05-15T15:01:21.870Z,2.50
2023-05-15T15:03:48.574Z,2.72
2023-05-15T15:06:15.413Z,2.70
2023-05-15T15:08:42.148Z,2.90
2023-05-15T15:11:08.990Z,2.42
2023-05-15T15:13:35.645Z,2.40
2023-05-15T15:16:02.370Z,2.92
2023-05-15T15:18:29.101Z,2.90
2023-05-15T15:20:55.805Z,3.55
2023-05-15T15:23:22.779Z,2.85
2023-05-15T15:25:49.475Z,2.75
2023-05-15T15:28:16.159Z,2.78
2023-05-15T15:30:42.852Z,2.80
2023-05-15T15:33:09.645Z,3.22
2023-05-15T15:35:36.369Z,3.10
2023-05-15T15:38:03.557Z,3.03
2023-05-15T15:40:30.332Z,3.08
2023-05-15T15:42:57.326Z,2.67
2023-05-15T15:45:24.139Z,3.38
2023-05-15T15:47:51.049Z,3.00
2023-05-15T15:50:17.853Z,3.00
2023-05-15T15:52:44.558Z,2.88
2023-05-15T15:55:11.297Z,3.60
2023-05-15T15:57:38.025Z,3.65
2023-05-15T16:00:06.930Z,2.92
2023-05-15T16:02:34.025Z,3.42
2023-05-15T16:05:00.931Z,3.28
2023-05-15T16:07:27.632Z,3.15
2023-05-15T16:10:04.306Z,2.83
2023-05-15T16:12:40.489Z,3.85
2023-05-15T16:15:21.078Z,3.65
2023-05-15T16:17:52.888Z,3.08
2023-05-15T16:20:20.309Z,2.90
2023-05-15T16:22:46.987Z,3.00
2023-05-15T16:25:13.654Z,3.58
2023-05-15T16:27:40.360Z,3.08
2023-05-15T16:30:07.969Z,3.03
2023-05-15T16:32:35.104Z,3.28
2023-05-15T16:35:01.850Z,3.67
2023-05-15T16:37:28.545Z,3.17
2023-05-15T16:39:55.234Z,3.17
2023-05-15T16:42:21.933Z,3.42
2023-05-15T16:44:48.627Z,3.28
2023-05-15T16:47:15.320Z,3.30
2023-05-15T16:49:44.128Z,2.65
2023-05-15T16:52:11.676Z,3.35
2023-05-15T16:54:41.423Z,3.10
2023-05-15T16:57:08.400Z,3.30
2023-05-15T16:59:35.178Z,3.60
2023-05-15T17:02:01.976Z,3.60
2023-05-15T17:04:32.732Z,4.60
2023-05-15T17:06:59.794Z,4.78
2023-05-15T17:09:26.512Z,4.60
2023-05-15T17:11:53.255Z,4.90
2023-05-15T17:14:20.083Z,5.43
2023-05-15T17:16:46.801Z,4.88
2023-05-15T17:19:14.138Z,4.35
2023-05-15T17:21:40.913Z,4.47
2023-05-15T17:24:07.737Z,3.97
2023-05-15T17:26:34.487Z,3.47
2023-05-15T17:29:01.204Z,4.35
2023-05-15T17:31:29.404Z,4.60
2023-05-15T17:33:56.437Z,4.20
2023-05-15T17:36:23.164Z,3.90
2023-05-15T17:38:49.849Z,3.30
2023-05-15T17:41:16.551Z,4.18
2023-05-15T17:43:43.530Z,4.75
2023-05-15T17:46:10.287Z,6.30
2023-05-15T17:48:36.946Z,7.47
2023-05-15T17:51:03.661Z,5.80
2023-05-15T17:53:30.484Z,4.25
2023-05-15T17:55:57.347Z,4.63
2023-05-15T17:58:24.193Z,4.30
2023-05-15T18:00:52.014Z,4.93
2023-05-15T18:03:18.777Z,4.10
2023-05-15T18:05:46.973Z,4.28
2023-05-15T18:08:14.282Z,3.80
2023-05-15T18:10:40.976Z,3.20
2023-05-15T18:13:08.064Z,2.67
2023-05-15T18:15:37.479Z,2.05
2023-05-15T18:18:04.880Z,2.28
2023-05-15T18:20:31.719Z,1.95
2023-05-15T18:22:58.443Z,2.15
2023-05-15T18:25:25.515Z,2.40
2023-05-15T18:27:52.502Z,2.65
2023-05-15T18:30:19.587Z,2.22
2023-05-15T18:32:46.323Z,2.70
2023-05-15T18:35:13.099Z,2.42
2023-05-15T18:37:39.977Z,2.28
2023-05-15T18:40:07.474Z,2.85
2023-05-15T18:42:34.426Z,2.17
2023-05-15T18:45:02.138Z,2.25
2023-05-15T18:47:29.084Z,1.88
2023-05-15T18:49:55.845Z,1.98
2023-05-15T18:52:22.578Z,1.67
2023-05-15T18:54:49.413Z,1.55
2023-05-15T18:57:16.098Z,1.77
2023-05-15T18:59:42.892Z,1.92
2023-05-15T19:02:09.851Z,1.67
2023-05-15T19:04:36.738Z,1.77
2023-05-15T19:07:03.480Z,1.88
2023-05-15T19:09:30.290Z,1.98
2023-05-15T19:11:59.334Z,1.83
2023-05-15T19:14:26.287Z,2.20
2023-05-15T19:16:53.092Z,1.80
2023-05-15T19:19:20.110Z,2.03
2023-05-15T19:21:47.490Z,2.05
2023-05-15T19:24:14.215Z,2.50
2023-05-15T19:26:40.893Z,1.95
2023-05-15T19:29:07.583Z,2.00
2023-05-15T19:31:34.449Z,2.20
2023-05-15T19:34:01.148Z,2.40
2023-05-15T19:36:27.916Z,1.98
2023-05-15T19:38:54.616Z,2.17
2023-05-15T19:41:22.269Z,2.05
2023-05-15T19:43:50.652Z,2.67
2023-05-15T19:46:18.215Z,2.55
2023-05-15T19:48:45.348Z,2.58
2023-05-15T19:51:12.741Z,2.50
2023-05-15T19:53:39.494Z,2.83
2023-05-15T19:56:06.433Z,2.65
2023-05-15T19:58:33.155Z,2.47
2023-05-15T20:00:59.843Z,2.40
2023-05-15T20:03:32.567Z,2.58
2023-05-15T20:06:01.250Z,2.40
2023-05-15T20:08:28.547Z,2.70
2023-05-15T20:10:55.625Z,2.63
2023-05-15T20:13:22.659Z,3.20
2023-05-15T20:15:58.156Z,2.80
2023-05-15T20:18:25.938Z,3.05
2023-05-15T20:20:53.010Z,2.97
2023-05-15T20:23:20.797Z,3.45
2023-05-15T20:25:48.934Z,3.08
2023-05-15T20:28:15.623Z,3.08
2023-05-15T20:30:42.485Z,3.00
2023-05-15T20:33:09.311Z,3.03
2023-05-15T20:35:37.132Z,3.20
2023-05-15T20:38:04.266Z,3.78
2023-05-15T20:40:30.985Z,3.63
2023-05-15T20:42:57.752Z,3.60
2023-05-15T20:45:24.743Z,3.47
2023-05-15T20:47:51.457Z,3.70
2023-05-15T20:50:18.527Z,3.60
2023-05-15T20:52:45.866Z,3.60
2023-05-15T20:55:16.175Z,3.40
2023-05-15T20:57:46.058Z,3.75
2023-05-15T21:00:15.345Z,3.40
2023-05-15T21:02:42.974Z,3.28
2023-05-15T21:05:09.802Z,3.42
2023-05-15T21:07:37.335Z,3.58
2023-05-15T21:10:04.742Z,3.50
2023-05-15T21:12:32.717Z,3.88
2023-05-15T21:14:59.780Z,4.07
2023-05-15T21:17:26.498Z,3.63
2023-05-15T21:19:53.707Z,3.38
2023-05-15T21:22:20.482Z,3.65
2023-05-15T21:24:47.127Z,4.40
2023-05-15T21:27:13.842Z,3.75
2023-05-15T21:29:40.531Z,3.75
2023-05-15T21:32:07.431Z,3.85
2023-05-15T21:34:34.114Z,3.55
2023-05-15T21:37:00.724Z,3.25
2023-05-15T21:39:27.391Z,3.22
2023-05-15T21:41:54.039Z,3.90
2023-05-15T21:44:21.078Z,3.40
2023-05-15T21:46:47.868Z,3.33
2023-05-15T21:49:14.608Z,3.75
2023-05-15T21:51:41.659Z,3.83
2023-05-15T21:54:08.364Z,3.85
2023-05-15T21:56:35.969Z,3.80
2023-05-15T21:59:02.835Z,3.75
2023-05-15T22:01:29.774Z,3.92
2023-05-15T22:03:56.477Z,3.55
2023-05-15T22:06:23.237Z,3.75
2023-05-15T22:08:49.968Z,3.58
2023-05-15T22:11:17.104Z,3.65
2023-05-15T22:13:43.864Z,3.97
2023-05-15T22:16:10.828Z,3.78
2023-05-15T22:18:37.770Z,3.42
2023-05-15T22:21:04.607Z,3.38
2023-05-15T22:23:32.153Z,3.97
2023-05-15T22:25:58.872Z,3.63
2023-05-15T22:28:25.614Z,3.85
2023-05-15T22:30:52.263Z,3.33
2023-05-15T22:33:23.959Z,3.40
2023-05-15T22:35:53.094Z,3.38
2023-05-15T22:38:20.666Z,3.78
2023-05-15T22:40:51.465Z,3.90
2023-05-15T22:43:18.298Z,3.33
2023-05-15T22:45:45.205Z,3.53
2023-05-15T22:48:12.036Z,3.75
2023-05-15T22:50:38.812Z,3.58
2023-05-15T22:53:05.632Z,3.95
2023-05-15T22:55:32.591Z,3.40
2023-05-15T22:57:59.547Z,4.03
2023-05-15T23:00:26.480Z,4.10
2023-05-15T23:02:55.252Z,4.05
2023-05-15T23:05:22.839Z,3.55
2023-05-15T23:07:50.063Z,3.95
2023-05-15T23:10:16.942Z,4.70
2023-05-15T23:12:43.694Z,4.28
2023-05-15T23:15:10.670Z,4.60
2023-05-15T23:17:37.462Z,4.50
2023-05-15T23:20:06.788Z,4.85
2023-05-15T23:22:33.621Z,5.07
2023-05-15T23:25:00.699Z,4.80
2023-05-15T23:27:27.415Z,5.07
2023-05-15T23:29:54.148Z,4.03
2023-05-15T23:32:20.882Z,4.38
2023-05-15T23:34:47.630Z,3.72
2023-05-15T23:37:14.398Z,4.75
2023-05-15T23:39:41.086Z,4.35
2023-05-15T23:42:09.921Z,4.18
2023-05-15T23:44:36.817Z,4.25
2023-05-15T23:47:04.375Z,4.25
2023-05-15T23:49:32.806Z,4.15
2023-05-15T23:51:59.631Z,4.55
2023-05-15T23:54:26.325Z,4.50
2023-05-15T23:56:53.185Z,4.80
2023-05-15T23:59:19.869Z,4.50
